sensor_id;sensor_type;location;lat;lon;timestamp;temperature;humidity
28189;DHT22;15471;51.166;4.470;2023-01-04T00:00:15;8.80;99.90
28189;DHT22;15471;51.166;4.470;2023-01-04T00:02:41;8.90;99.90
28189;DHT22;15471;51.166;4.470;2023-01-04T00:05:07;8.90;99.90
28189;DHT22;15471;51.166;4.470;2023-01-04T00:07:33;8.90;99.90
28189;DHT22;15471;51.166;4.470;2023-01-04T00:09:59;8.90;99.90
28189;DHT22;15471;51.166;4.470;2023-01-04T00:12:25;9.00;99.90
28189;DHT22;15471;51.166;4.470;2023-01-04T00:14:52;9.00;99.90
28189;DHT22;15471;51.166;4.470;2023-01-04T00:17:18;9.00;99.90
28189;DHT22;15471;51.166;4.470;2023-01-04T00:19:52;9.20;99.90
28189;DHT22;15471;51.166;4.470;2023-01-04T00:22:18;9.10;99.90
28189;DHT22;15471;51.166;4.470;2023-01-04T00:24:45;9.10;99.90
28189;DHT22;15471;51.166;4.470;2023-01-04T00:27:13;9.20;99.90
28189;DHT22;15471;51.166;4.470;2023-01-04T00:29:39;9.20;99.90
28189;DHT22;15471;51.166;4.470;2023-01-04T00:32:05;9.20;99.90
28189;DHT22;15471;51.166;4.470;2023-01-04T00:34:34;9.20;99.90
28189;DHT22;15471;51.166;4.470;2023-01-04T00:37:03;9.20;99.90
28189;DHT22;15471;51.166;4.470;2023-01-04T00:39:29;9.20;99.90
28189;DHT22;15471;51.166;4.470;2023-01-04T00:41:55;9.30;99.90
28189;DHT22;15471;51.166;4.470;2023-01-04T00:44:34;9.20;99.90
28189;DHT22;15471;51.166;4.470;2023-01-04T00:47:01;9.20;99.90
28189;DHT22;15471;51.166;4.470;2023-01-04T00:49:30;9.30;99.90
28189;DHT22;15471;51.166;4.470;2023-01-04T00:51:57;9.40;99.90
28189;DHT22;15471;51.166;4.470;2023-01-04T00:54:23;9.30;99.90
28189;DHT22;15471;51.166;4.470;2023-01-04T00:56:49;9.30;99.90
28189;DHT22;15471;51.166;4.470;2023-01-04T00:59:18;9.30;99.90
28189;DHT22;15471;51.166;4.470;2023-01-04T01:01:45;9.30;99.90
28189;DHT22;15471;51.166;4.470;2023-01-04T01:04:15;9.30;99.90
28189;DHT22;15471;51.166;4.470;2023-01-04T01:06:41;9.40;99.90
28189;DHT22;15471;51.166;4.470;2023-01-04T01:09:08;9.40;99.90
28189;DHT22;15471;51.166;4.470;2023-01-04T01:11:34;9.50;99.90
28189;DHT22;15471;51.166;4.470;2023-01-04T01:14:06;9.50;99.90
28189;DHT22;15471;51.166;4.470;2023-01-04T01:16:34;9.50;99.90
28189;DHT22;15471;51.166;4.470;2023-01-04T01:19:00;9.50;99.90
28189;DHT22;15471;51.166;4.470;2023-01-04T01:21:27;9.50;99.90
28189;DHT22;15471;51.166;4.470;2023-01-04T01:23:55;9.50;99.90
28189;DHT22;15471;51.166;4.470;2023-01-04T01:26:23;9.60;99.90
28189;DHT22;15471;51.166;4.470;2023-01-04T01:28:50;9.60;99.90
28189;DHT22;15471;51.166;4.470;2023-01-04T01:31:18;9.70;99.90
28189;DHT22;15471;51.166;4.470;2023-01-04T01:33:46;9.60;99.90
28189;DHT22;15471;51.166;4.470;2023-01-04T01:36:15;9.60;99.90
28189;DHT22;15471;51.166;4.470;2023-01-04T01:38:42;9.70;99.90
28189;DHT22;15471;51.166;4.470;2023-01-04T01:41:24;9.70;99.90
28189;DHT22;15471;51.166;4.470;2023-01-04T01:43:59;9.70;99.90
28189;DHT22;15471;51.166;4.470;2023-01-04T01:46:38;9.70;99.90
28189;DHT22;15471;51.166;4.470;2023-01-04T01:51:43;9.80;99.90
28189;DHT22;15471;51.166;4.470;2023-01-04T01:54:18;9.80;99.90
28189;DHT22;15471;51.166;4.470;2023-01-04T01:56:47;9.90;99.90
28189;DHT22;15471;51.166;4.470;2023-01-04T01:59:14;9.90;99.90
28189;DHT22;15471;51.166;4.470;2023-01-04T02:01:41;9.90;99.90
28189;DHT22;15471;51.166;4.470;2023-01-04T02:04:08;9.90;99.90
28189;DHT22;15471;51.166;4.470;2023-01-04T02:06:40;9.90;99.90
28189;DHT22;15471;51.166;4.470;2023-01-04T02:09:08;10.00;99.90
28189;DHT22;15471;51.166;4.470;2023-01-04T02:11:34;9.90;99.90
28189;DHT22;15471;51.166;4.470;2023-01-04T02:14:02;9.90;99.90
28189;DHT22;15471;51.166;4.470;2023-01-04T02:16:58;9.90;99.90
28189;DHT22;15471;51.166;4.470;2023-01-04T02:22:20;10.00;99.90
28189;DHT22;15471;51.166;4.470;2023-01-04T02:25:09;10.00;99.90
28189;DHT22;15471;51.166;4.470;2023-01-04T02:28:21;10.00;99.90
28189;DHT22;15471;51.166;4.470;2023-01-04T02:34:07;10.10;99.90
28189;DHT22;15471;51.166;4.470;2023-01-04T02:37:02;10.10;99.90
28189;DHT22;15471;51.166;4.470;2023-01-04T02:44:44;10.10;99.90
28189;DHT22;15471;51.166;4.470;2023-01-04T02:47:28;10.10;99.90
28189;DHT22;15471;51.166;4.470;2023-01-04T02:53:02;10.20;99.90
28189;DHT22;15471;51.166;4.470;2023-01-04T02:55:56;10.20;99.90
28189;DHT22;15471;51.166;4.470;2023-01-04T02:58:55;10.20;99.90
28189;DHT22;15471;51.166;4.470;2023-01-04T03:07:26;10.30;99.90
28189;DHT22;15471;51.166;4.470;2023-01-04T03:10:06;10.30;99.90
28189;DHT22;15471;51.166;4.470;2023-01-04T03:12:40;10.30;99.90
28189;DHT22;15471;51.166;4.470;2023-01-04T03:15:22;10.30;99.90
28189;DHT22;15471;51.166;4.470;2023-01-04T03:18:07;10.30;99.90
28189;DHT22;15471;51.166;4.470;2023-01-04T03:20:34;10.40;99.90
28189;DHT22;15471;51.166;4.470;2023-01-04T03:23:06;10.40;99.90
28189;DHT22;15471;51.166;4.470;2023-01-04T03:25:56;10.40;99.90
28189;DHT22;15471;51.166;4.470;2023-01-04T03:28:43;10.40;99.90
28189;DHT22;15471;51.166;4.470;2023-01-04T03:31:48;10.40;99.90
28189;DHT22;15471;51.166;4.470;2023-01-04T03:34:35;10.40;99.90
28189;DHT22;15471;51.166;4.470;2023-01-04T03:37:58;10.50;99.90
28189;DHT22;15471;51.166;4.470;2023-01-04T03:40:54;10.50;99.90
28189;DHT22;15471;51.166;4.470;2023-01-04T03:43:45;10.50;99.90
28189;DHT22;15471;51.166;4.470;2023-01-04T03:46:50;10.50;99.90
28189;DHT22;15471;51.166;4.470;2023-01-04T03:49:43;10.50;99.90
28189;DHT22;15471;51.166;4.470;2023-01-04T03:52:12;10.50;99.90
28189;DHT22;15471;51.166;4.470;2023-01-04T03:54:42;10.60;99.90
28189;DHT22;15471;51.166;4.470;2023-01-04T03:57:12;10.60;99.90
28189;DHT22;15471;51.166;4.470;2023-01-04T03:59:50;10.60;99.90
28189;DHT22;15471;51.166;4.470;2023-01-04T04:02:22;10.60;99.90
28189;DHT22;15471;51.166;4.470;2023-01-04T04:04:48;10.70;99.90
28189;DHT22;15471;51.166;4.470;2023-01-04T04:07:33;10.70;99.90
28189;DHT22;15471;51.166;4.470;2023-01-04T04:10:18;10.70;99.90
28189;DHT22;15471;51.166;4.470;2023-01-04T04:12:43;10.70;99.90
28189;DHT22;15471;51.166;4.470;2023-01-04T04:15:09;10.70;99.90
28189;DHT22;15471;51.166;4.470;2023-01-04T04:17:35;10.70;99.90
28189;DHT22;15471;51.166;4.470;2023-01-04T04:20:01;10.70;99.90
28189;DHT22;15471;51.166;4.470;2023-01-04T04:22:27;10.80;99.90
28189;DHT22;15471;51.166;4.470;2023-01-04T04:24:53;10.80;99.90
28189;DHT22;15471;51.166;4.470;2023-01-04T04:27:19;10.90;99.90
28189;DHT22;15471;51.166;4.470;2023-01-04T04:29:45;10.80;99.90
28189;DHT22;15471;51.166;4.470;2023-01-04T04:32:11;11.00;99.90
28189;DHT22;15471;51.166;4.470;2023-01-04T04:34:37;11.00;99.90
28189;DHT22;15471;51.166;4.470;2023-01-04T04:37:03;11.10;99.90
28189;DHT22;15471;51.166;4.470;2023-01-04T04:39:29;11.10;99.90
28189;DHT22;15471;51.166;4.470;2023-01-04T04:41:55;11.10;99.90
28189;DHT22;15471;51.166;4.470;2023-01-04T04:44:21;11.00;99.90
28189;DHT22;15471;51.166;4.470;2023-01-04T04:46:48;11.00;99.90
28189;DHT22;15471;51.166;4.470;2023-01-04T04:49:14;11.00;99.90
28189;DHT22;15471;51.166;4.470;2023-01-04T04:51:41;10.90;99.90
28189;DHT22;15471;51.166;4.470;2023-01-04T04:54:09;11.00;99.90
28189;DHT22;15471;51.166;4.470;2023-01-04T04:56:37;11.00;99.90
28189;DHT22;15471;51.166;4.470;2023-01-04T04:59:03;11.00;99.90
28189;DHT22;15471;51.166;4.470;2023-01-04T05:01:29;11.00;99.90
28189;DHT22;15471;51.166;4.470;2023-01-04T05:03:55;11.10;99.90
28189;DHT22;15471;51.166;4.470;2023-01-04T05:06:22;11.10;99.90
28189;DHT22;15471;51.166;4.470;2023-01-04T05:08:48;11.10;99.90
28189;DHT22;15471;51.166;4.470;2023-01-04T05:11:14;11.10;99.90
28189;DHT22;15471;51.166;4.470;2023-01-04T05:13:40;11.10;99.90
28189;DHT22;15471;51.166;4.470;2023-01-04T05:16:08;11.10;99.90
28189;DHT22;15471;51.166;4.470;2023-01-04T05:18:34;11.20;99.90
28189;DHT22;15471;51.166;4.470;2023-01-04T05:21:00;11.30;99.90
28189;DHT22;15471;51.166;4.470;2023-01-04T05:23:27;11.30;99.90
28189;DHT22;15471;51.166;4.470;2023-01-04T05:25:57;11.40;99.90
28189;DHT22;15471;51.166;4.470;2023-01-04T05:28:24;11.40;99.90
28189;DHT22;15471;51.166;4.470;2023-01-04T05:30:50;11.40;99.90
28189;DHT22;15471;51.166;4.470;2023-01-04T05:33:27;11.40;99.90
28189;DHT22;15471;51.166;4.470;2023-01-04T05:35:55;11.40;99.90
28189;DHT22;15471;51.166;4.470;2023-01-04T05:38:21;11.40;99.90
28189;DHT22;15471;51.166;4.470;2023-01-04T05:40:48;11.40;99.90
28189;DHT22;15471;51.166;4.470;2023-01-04T05:43:14;11.40;99.90
28189;DHT22;15471;51.166;4.470;2023-01-04T05:45:43;11.40;99.90
28189;DHT22;15471;51.166;4.470;2023-01-04T05:48:11;11.40;99.90
28189;DHT22;15471;51.166;4.470;2023-01-04T05:50:37;11.40;99.90
28189;DHT22;15471;51.166;4.470;2023-01-04T05:53:05;11.30;99.90
28189;DHT22;15471;51.166;4.470;2023-01-04T05:55:31;11.20;99.90
28189;DHT22;15471;51.166;4.470;2023-01-04T05:57:59;11.20;99.90
28189;DHT22;15471;51.166;4.470;2023-01-04T06:00:25;11.20;99.90
28189;DHT22;15471;51.166;4.470;2023-01-04T06:02:51;11.30;99.90
28189;DHT22;15471;51.166;4.470;2023-01-04T06:05:17;11.20;99.90
28189;DHT22;15471;51.166;4.470;2023-01-04T06:07:43;11.20;99.90
28189;DHT22;15471;51.166;4.470;2023-01-04T06:10:10;11.20;99.90
28189;DHT22;15471;51.166;4.470;2023-01-04T06:12:37;11.10;99.90
28189;DHT22;15471;51.166;4.470;2023-01-04T06:15:04;11.10;99.90
28189;DHT22;15471;51.166;4.470;2023-01-04T06:17:30;11.10;99.90
28189;DHT22;15471;51.166;4.470;2023-01-04T06:19:56;11.10;99.90
28189;DHT22;15471;51.166;4.470;2023-01-04T06:22:23;11.20;99.90
28189;DHT22;15471;51.166;4.470;2023-01-04T06:24:51;11.20;99.90
28189;DHT22;15471;51.166;4.470;2023-01-04T06:27:17;11.30;99.90
28189;DHT22;15471;51.166;4.470;2023-01-04T06:29:43;11.30;99.90
28189;DHT22;15471;51.166;4.470;2023-01-04T06:32:09;11.30;99.90
28189;DHT22;15471;51.166;4.470;2023-01-04T06:34:35;11.20;99.90
28189;DHT22;15471;51.166;4.470;2023-01-04T06:37:01;11.20;99.90
28189;DHT22;15471;51.166;4.470;2023-01-04T06:39:27;11.20;99.90
28189;DHT22;15471;51.166;4.470;2023-01-04T06:41:53;11.30;99.90
28189;DHT22;15471;51.166;4.470;2023-01-04T06:44:19;11.30;99.90
28189;DHT22;15471;51.166;4.470;2023-01-04T06:46:45;11.30;99.90
28189;DHT22;15471;51.166;4.470;2023-01-04T06:49:11;11.30;99.90
28189;DHT22;15471;51.166;4.470;2023-01-04T06:51:40;11.20;99.90
28189;DHT22;15471;51.166;4.470;2023-01-04T06:54:08;11.30;99.90
28189;DHT22;15471;51.166;4.470;2023-01-04T06:56:36;11.30;99.90
28189;DHT22;15471;51.166;4.470;2023-01-04T06:59:02;11.30;99.90
28189;DHT22;15471;51.166;4.470;2023-01-04T07:01:28;11.30;99.90
28189;DHT22;15471;51.166;4.470;2023-01-04T07:03:54;11.30;99.90
28189;DHT22;15471;51.166;4.470;2023-01-04T07:06:20;11.30;99.90
28189;DHT22;15471;51.166;4.470;2023-01-04T07:08:46;11.30;99.90
28189;DHT22;15471;51.166;4.470;2023-01-04T07:11:12;11.30;99.90
28189;DHT22;15471;51.166;4.470;2023-01-04T07:13:37;11.40;99.90
28189;DHT22;15471;51.166;4.470;2023-01-04T07:16:03;11.30;99.90
28189;DHT22;15471;51.166;4.470;2023-01-04T07:18:29;11.30;99.90
28189;DHT22;15471;51.166;4.470;2023-01-04T07:20:56;11.40;99.90
28189;DHT22;15471;51.166;4.470;2023-01-04T07:23:22;11.40;99.90
28189;DHT22;15471;51.166;4.470;2023-01-04T07:25:50;11.40;99.90
28189;DHT22;15471;51.166;4.470;2023-01-04T07:28:15;11.40;99.90
28189;DHT22;15471;51.166;4.470;2023-01-04T07:31:06;11.40;99.90
28189;DHT22;15471;51.166;4.470;2023-01-04T07:33:32;11.40;99.90
28189;DHT22;15471;51.166;4.470;2023-01-04T07:36:03;11.40;99.90
28189;DHT22;15471;51.166;4.470;2023-01-04T07:38:29;11.40;99.90
28189;DHT22;15471;51.166;4.470;2023-01-04T07:40:55;11.40;99.90
28189;DHT22;15471;51.166;4.470;2023-01-04T07:43:21;11.40;99.90
28189;DHT22;15471;51.166;4.470;2023-01-04T07:45:47;11.40;99.90
28189;DHT22;15471;51.166;4.470;2023-01-04T07:48:13;11.40;99.90
28189;DHT22;15471;51.166;4.470;2023-01-04T07:50:39;11.40;99.90
28189;DHT22;15471;51.166;4.470;2023-01-04T07:53:05;11.40;99.90
28189;DHT22;15471;51.166;4.470;2023-01-04T07:55:31;11.40;99.90
28189;DHT22;15471;51.166;4.470;2023-01-04T07:57:57;11.50;99.90
28189;DHT22;15471;51.166;4.470;2023-01-04T08:00:27;11.50;99.90
28189;DHT22;15471;51.166;4.470;2023-01-04T08:02:53;11.50;99.90
28189;DHT22;15471;51.166;4.470;2023-01-04T08:05:19;11.50;99.90
28189;DHT22;15471;51.166;4.470;2023-01-04T08:07:45;11.50;99.90
28189;DHT22;15471;51.166;4.470;2023-01-04T08:10:11;11.60;99.90
28189;DHT22;15471;51.166;4.470;2023-01-04T08:12:39;11.60;99.90
28189;DHT22;15471;51.166;4.470;2023-01-04T08:15:06;11.60;99.90
28189;DHT22;15471;51.166;4.470;2023-01-04T08:17:32;11.60;99.90
28189;DHT22;15471;51.166;4.470;2023-01-04T08:19:58;11.70;99.90
28189;DHT22;15471;51.166;4.470;2023-01-04T08:22:26;11.70;99.90
28189;DHT22;15471;51.166;4.470;2023-01-04T08:24:52;11.70;99.90
28189;DHT22;15471;51.166;4.470;2023-01-04T08:27:18;11.70;99.90
28189;DHT22;15471;51.166;4.470;2023-01-04T08:29:43;11.80;99.90
28189;DHT22;15471;51.166;4.470;2023-01-04T08:32:09;11.90;99.90
28189;DHT22;15471;51.166;4.470;2023-01-04T08:34:35;11.90;99.90
28189;DHT22;15471;51.166;4.470;2023-01-04T08:37:01;11.90;99.90
28189;DHT22;15471;51.166;4.470;2023-01-04T08:39:27;12.00;99.90
28189;DHT22;15471;51.166;4.470;2023-01-04T08:41:57;12.10;99.90
28189;DHT22;15471;51.166;4.470;2023-01-04T08:44:24;12.00;99.90
28189;DHT22;15471;51.166;4.470;2023-01-04T08:46:52;12.00;99.90
28189;DHT22;15471;51.166;4.470;2023-01-04T08:49:19;12.00;99.90
28189;DHT22;15471;51.166;4.470;2023-01-04T08:51:45;12.00;99.90
28189;DHT22;15471;51.166;4.470;2023-01-04T08:54:11;11.90;99.90
28189;DHT22;15471;51.166;4.470;2023-01-04T08:56:37;11.90;99.90
28189;DHT22;15471;51.166;4.470;2023-01-04T08:59:05;11.90;99.90
28189;DHT22;15471;51.166;4.470;2023-01-04T09:01:32;11.80;99.90
28189;DHT22;15471;51.166;4.470;2023-01-04T09:03:58;11.90;99.90
28189;DHT22;15471;51.166;4.470;2023-01-04T09:06:25;11.90;99.90
28189;DHT22;15471;51.166;4.470;2023-01-04T09:08:51;12.00;99.90
28189;DHT22;15471;51.166;4.470;2023-01-04T09:11:19;11.90;99.90
28189;DHT22;15471;51.166;4.470;2023-01-04T09:13:46;11.90;99.90
28189;DHT22;15471;51.166;4.470;2023-01-04T09:16:17;11.90;99.90
28189;DHT22;15471;51.166;4.470;2023-01-04T09:18:44;11.90;99.90
28189;DHT22;15471;51.166;4.470;2023-01-04T09:21:12;12.00;99.90
28189;DHT22;15471;51.166;4.470;2023-01-04T09:23:39;12.00;99.90
28189;DHT22;15471;51.166;4.470;2023-01-04T09:26:14;12.00;99.90
28189;DHT22;15471;51.166;4.470;2023-01-04T09:28:41;12.00;99.90
28189;DHT22;15471;51.166;4.470;2023-01-04T09:31:12;12.00;99.90
28189;DHT22;15471;51.166;4.470;2023-01-04T09:33:39;12.00;99.90
28189;DHT22;15471;51.166;4.470;2023-01-04T09:36:06;12.00;99.90
28189;DHT22;15471;51.166;4.470;2023-01-04T09:38:33;12.10;99.90
28189;DHT22;15471;51.166;4.470;2023-01-04T09:43:45;12.10;99.90
28189;DHT22;15471;51.166;4.470;2023-01-04T09:49:44;12.10;99.90
28189;DHT22;15471;51.166;4.470;2023-01-04T09:51:59;12.10;99.90
28189;DHT22;15471;51.166;4.470;2023-01-04T09:57:19;12.20;99.90
28189;DHT22;15471;51.166;4.470;2023-01-04T09:59:46;12.20;99.90
28189;DHT22;15471;51.166;4.470;2023-01-04T10:02:21;12.10;99.90
28189;DHT22;15471;51.166;4.470;2023-01-04T10:04:50;12.10;99.90
28189;DHT22;15471;51.166;4.470;2023-01-04T10:07:26;12.10;99.90
28189;DHT22;15471;51.166;4.470;2023-01-04T10:09:53;12.20;99.90
28189;DHT22;15471;51.166;4.470;2023-01-04T10:15:29;12.20;99.90
28189;DHT22;15471;51.166;4.470;2023-01-04T10:18:23;12.50;99.90
28189;DHT22;15471;51.166;4.470;2023-01-04T10:26:11;12.30;99.90
28189;DHT22;15471;51.166;4.470;2023-01-04T10:31:34;12.30;99.90
28189;DHT22;15471;51.166;4.470;2023-01-04T10:34:15;12.30;99.90
28189;DHT22;15471;51.166;4.470;2023-01-04T10:36:46;12.40;99.90
28189;DHT22;15471;51.166;4.470;2023-01-04T10:39:18;12.30;99.90
28189;DHT22;15471;51.166;4.470;2023-01-04T10:41:57;12.30;99.90
28189;DHT22;15471;51.166;4.470;2023-01-04T10:44:58;12.30;99.90
28189;DHT22;15471;51.166;4.470;2023-01-04T10:50:26;12.30;99.90
28189;DHT22;15471;51.166;4.470;2023-01-04T10:53:15;12.30;99.90
28189;DHT22;15471;51.166;4.470;2023-01-04T10:55:50;12.20;99.90
28189;DHT22;15471;51.166;4.470;2023-01-04T11:01:28;12.20;99.90
28189;DHT22;15471;51.166;4.470;2023-01-04T11:06:47;12.30;99.90
28189;DHT22;15471;51.166;4.470;2023-01-04T11:09:25;12.30;99.90
28189;DHT22;15471;51.166;4.470;2023-01-04T11:12:00;12.30;99.90
28189;DHT22;15471;51.166;4.470;2023-01-04T11:14:30;12.30;99.90
28189;DHT22;15471;51.166;4.470;2023-01-04T11:17:00;12.30;99.90
28189;DHT22;15471;51.166;4.470;2023-01-04T11:19:33;12.30;99.90
28189;DHT22;15471;51.166;4.470;2023-01-04T11:22:05;12.40;99.90
28189;DHT22;15471;51.166;4.470;2023-01-04T11:24:33;12.30;99.90
28189;DHT22;15471;51.166;4.470;2023-01-04T11:27:09;12.30;99.90
28189;DHT22;15471;51.166;4.470;2023-01-04T11:29:50;12.20;99.90
28189;DHT22;15471;51.166;4.470;2023-01-04T11:32:33;12.20;99.90
28189;DHT22;15471;51.166;4.470;2023-01-04T11:35:06;12.30;99.90
28189;DHT22;15471;51.166;4.470;2023-01-04T11:37:37;12.20;99.90
28189;DHT22;15471;51.166;4.470;2023-01-04T11:40:17;12.30;99.90
28189;DHT22;15471;51.166;4.470;2023-01-04T11:42:46;12.30;99.90
28189;DHT22;15471;51.166;4.470;2023-01-04T11:45:24;12.30;99.90
28189;DHT22;15471;51.166;4.470;2023-01-04T11:47:54;12.40;99.90
28189;DHT22;15471;51.166;4.470;2023-01-04T11:50:44;12.40;99.90
28189;DHT22;15471;51.166;4.470;2023-01-04T11:56:20;12.30;99.90
28189;DHT22;15471;51.166;4.470;2023-01-04T12:04:20;12.40;99.90
28189;DHT22;15471;51.166;4.470;2023-01-04T12:07:40;12.40;99.90
28189;DHT22;15471;51.166;4.470;2023-01-04T12:09:47;12.40;99.90
28189;DHT22;15471;51.166;4.470;2023-01-04T12:12:16;12.40;99.90
28189;DHT22;15471;51.166;4.470;2023-01-04T12:14:48;12.50;99.90
28189;DHT22;15471;51.166;4.470;2023-01-04T12:17:27;12.40;99.90
28189;DHT22;15471;51.166;4.470;2023-01-04T12:20:02;12.40;99.90
28189;DHT22;15471;51.166;4.470;2023-01-04T12:22:36;12.30;99.90
28189;DHT22;15471;51.166;4.470;2023-01-04T12:25:07;12.30;99.90
28189;DHT22;15471;51.166;4.470;2023-01-04T12:27:36;12.40;99.90
28189;DHT22;15471;51.166;4.470;2023-01-04T12:30:41;12.50;99.90
28189;DHT22;15471;51.166;4.470;2023-01-04T12:50:13;12.60;99.90
28189;DHT22;15471;51.166;4.470;2023-01-04T12:53:02;12.60;99.90
28189;DHT22;15471;51.166;4.470;2023-01-04T12:57:59;12.60;99.90
28189;DHT22;15471;51.166;4.470;2023-01-04T13:06:03;12.60;99.90
28189;DHT22;15471;51.166;4.470;2023-01-04T13:08:29;12.70;99.90
28189;DHT22;15471;51.166;4.470;2023-01-04T13:11:00;12.70;99.90
28189;DHT22;15471;51.166;4.470;2023-01-04T13:13:48;12.70;99.90
28189;DHT22;15471;51.166;4.470;2023-01-04T13:21:54;12.90;99.90
28189;DHT22;15471;51.166;4.470;2023-01-04T13:24:29;12.90;99.90
28189;DHT22;15471;51.166;4.470;2023-01-04T13:27:06;12.80;99.90
28189;DHT22;15471;51.166;4.470;2023-01-04T13:29:33;12.90;99.90
28189;DHT22;15471;51.166;4.470;2023-01-04T13:32:04;12.90;99.90
28189;DHT22;15471;51.166;4.470;2023-01-04T13:37:13;13.00;99.90
28189;DHT22;15471;51.166;4.470;2023-01-04T13:39:46;12.90;99.90
28189;DHT22;15471;51.166;4.470;2023-01-04T13:42:33;13.00;99.90
28189;DHT22;15471;51.166;4.470;2023-01-04T13:47:41;12.90;99.90
28189;DHT22;15471;51.166;4.470;2023-01-04T13:50:40;12.90;99.90
28189;DHT22;15471;51.166;4.470;2023-01-04T13:53:23;13.00;99.90
28189;DHT22;15471;51.166;4.470;2023-01-04T13:56:01;12.90;99.90
28189;DHT22;15471;51.166;4.470;2023-01-04T13:58:33;12.90;99.90
28189;DHT22;15471;51.166;4.470;2023-01-04T14:01:30;12.90;99.90
28189;DHT22;15471;51.166;4.470;2023-01-04T14:04:23;13.10;99.90
28189;DHT22;15471;51.166;4.470;2023-01-04T14:06:51;13.10;99.90
28189;DHT22;15471;51.166;4.470;2023-01-04T14:09:42;13.10;99.90
28189;DHT22;15471;51.166;4.470;2023-01-04T14:12:16;13.10;99.90
28189;DHT22;15471;51.166;4.470;2023-01-04T14:22:58;12.90;99.90
28189;DHT22;15471;51.166;4.470;2023-01-04T14:28:27;12.70;99.90
28189;DHT22;15471;51.166;4.470;2023-01-04T14:31:10;12.70;99.90
28189;DHT22;15471;51.166;4.470;2023-01-04T14:33:48;12.70;99.90
28189;DHT22;15471;51.166;4.470;2023-01-04T14:36:27;12.70;99.90
28189;DHT22;15471;51.166;4.470;2023-01-04T14:39:09;12.80;99.90
28189;DHT22;15471;51.166;4.470;2023-01-04T14:41:51;12.90;99.90
28189;DHT22;15471;51.166;4.470;2023-01-04T14:44:24;12.90;99.90
28189;DHT22;15471;51.166;4.470;2023-01-04T14:46:55;12.80;99.90
28189;DHT22;15471;51.166;4.470;2023-01-04T14:49:21;12.70;99.90
28189;DHT22;15471;51.166;4.470;2023-01-04T14:52:10;12.70;99.90
28189;DHT22;15471;51.166;4.470;2023-01-04T14:54:36;12.70;99.90
28189;DHT22;15471;51.166;4.470;2023-01-04T14:57:04;12.70;99.90
28189;DHT22;15471;51.166;4.470;2023-01-04T14:59:30;12.70;99.90
28189;DHT22;15471;51.166;4.470;2023-01-04T15:01:57;12.60;99.90
28189;DHT22;15471;51.166;4.470;2023-01-04T15:04:23;12.50;99.90
28189;DHT22;15471;51.166;4.470;2023-01-04T15:06:59;12.50;99.90
28189;DHT22;15471;51.166;4.470;2023-01-04T15:09:26;12.40;99.90
28189;DHT22;15471;51.166;4.470;2023-01-04T15:11:54;12.30;99.90
28189;DHT22;15471;51.166;4.470;2023-01-04T15:14:20;12.30;99.90
28189;DHT22;15471;51.166;4.470;2023-01-04T15:16:47;12.30;99.90
28189;DHT22;15471;51.166;4.470;2023-01-04T15:19:13;12.30;99.90
28189;DHT22;15471;51.166;4.470;2023-01-04T15:21:40;12.30;99.90
28189;DHT22;15471;51.166;4.470;2023-01-04T15:24:06;12.30;99.90
28189;DHT22;15471;51.166;4.470;2023-01-04T15:26:32;12.20;99.90
28189;DHT22;15471;51.166;4.470;2023-01-04T15:28:58;12.20;99.90
28189;DHT22;15471;51.166;4.470;2023-01-04T15:31:24;12.30;99.90
28189;DHT22;15471;51.166;4.470;2023-01-04T15:33:50;12.30;99.90
28189;DHT22;15471;51.166;4.470;2023-01-04T15:36:17;12.30;99.90
28189;DHT22;15471;51.166;4.470;2023-01-04T15:38:44;12.20;99.90
28189;DHT22;15471;51.166;4.470;2023-01-04T15:41:16;12.20;99.90
28189;DHT22;15471;51.166;4.470;2023-01-04T15:44:04;12.20;99.90
28189;DHT22;15471;51.166;4.470;2023-01-04T15:46:33;12.20;99.90
28189;DHT22;15471;51.166;4.470;2023-01-04T15:49:09;12.20;99.90
28189;DHT22;15471;51.166;4.470;2023-01-04T15:51:36;12.20;99.90
28189;DHT22;15471;51.166;4.470;2023-01-04T15:54:04;12.20;99.90
28189;DHT22;15471;51.166;4.470;2023-01-04T15:56:30;12.20;99.90
28189;DHT22;15471;51.166;4.470;2023-01-04T15:58:57;12.20;99.90
28189;DHT22;15471;51.166;4.470;2023-01-04T16:01:26;12.20;99.90
28189;DHT22;15471;51.166;4.470;2023-01-04T16:03:56;12.20;99.90
28189;DHT22;15471;51.166;4.470;2023-01-04T16:06:25;12.20;99.90
28189;DHT22;15471;51.166;4.470;2023-01-04T16:08:51;12.30;99.90
28189;DHT22;15471;51.166;4.470;2023-01-04T16:11:21;12.20;99.90
28189;DHT22;15471;51.166;4.470;2023-01-04T16:13:49;12.20;99.90
28189;DHT22;15471;51.166;4.470;2023-01-04T16:16:17;12.30;99.90
28189;DHT22;15471;51.166;4.470;2023-01-04T16:18:51;12.30;99.90
28189;DHT22;15471;51.166;4.470;2023-01-04T16:21:21;12.30;99.90
28189;DHT22;15471;51.166;4.470;2023-01-04T16:23:55;12.40;99.90
28189;DHT22;15471;51.166;4.470;2023-01-04T16:26:22;12.30;99.90
28189;DHT22;15471;51.166;4.470;2023-01-04T16:28:52;12.30;99.90
28189;DHT22;15471;51.166;4.470;2023-01-04T16:31:19;12.30;99.90
28189;DHT22;15471;51.166;4.470;2023-01-04T16:33:49;12.20;99.90
28189;DHT22;15471;51.166;4.470;2023-01-04T16:36:17;12.30;99.90
28189;DHT22;15471;51.166;4.470;2023-01-04T16:38:44;12.30;99.90
28189;DHT22;15471;51.166;4.470;2023-01-04T16:41:13;12.30;99.90
28189;DHT22;15471;51.166;4.470;2023-01-04T16:43:50;12.20;99.90
28189;DHT22;15471;51.166;4.470;2023-01-04T16:46:23;12.20;99.90
28189;DHT22;15471;51.166;4.470;2023-01-04T16:48:57;12.20;99.90
28189;DHT22;15471;51.166;4.470;2023-01-04T16:51:25;12.20;99.90
28189;DHT22;15471;51.166;4.470;2023-01-04T16:53:52;12.30;99.90
28189;DHT22;15471;51.166;4.470;2023-01-04T16:56:19;12.30;99.90
28189;DHT22;15471;51.166;4.470;2023-01-04T16:58:49;12.20;99.90
28189;DHT22;15471;51.166;4.470;2023-01-04T17:03:45;12.20;99.90
28189;DHT22;15471;51.166;4.470;2023-01-04T17:06:20;12.20;99.90
28189;DHT22;15471;51.166;4.470;2023-01-04T17:08:48;12.20;99.90
28189;DHT22;15471;51.166;4.470;2023-01-04T17:11:21;12.20;99.90
28189;DHT22;15471;51.166;4.470;2023-01-04T17:13:47;12.20;99.90
28189;DHT22;15471;51.166;4.470;2023-01-04T17:16:14;12.20;99.90
28189;DHT22;15471;51.166;4.470;2023-01-04T17:18:41;12.20;99.90
28189;DHT22;15471;51.166;4.470;2023-01-04T17:21:11;12.20;99.90
28189;DHT22;15471;51.166;4.470;2023-01-04T17:23:40;12.20;99.90
28189;DHT22;15471;51.166;4.470;2023-01-04T17:26:09;12.10;99.90
28189;DHT22;15471;51.166;4.470;2023-01-04T17:28:37;12.20;99.90
28189;DHT22;15471;51.166;4.470;2023-01-04T17:31:18;12.20;99.90
28189;DHT22;15471;51.166;4.470;2023-01-04T17:33:45;12.30;99.90
28189;DHT22;15471;51.166;4.470;2023-01-04T17:36:13;12.30;99.90
28189;DHT22;15471;51.166;4.470;2023-01-04T17:38:39;12.30;99.90
28189;DHT22;15471;51.166;4.470;2023-01-04T17:41:13;12.30;99.90
28189;DHT22;15471;51.166;4.470;2023-01-04T17:43:40;12.30;99.90
28189;DHT22;15471;51.166;4.470;2023-01-04T17:46:09;12.30;99.90